Time;durP1;ratioP1;P1;durP2;ratioP2;P2;SDS_P1;SDS_P2;PMS_P1;PMS_P2;Temp;Humidity;BMP_temperature;BMP_pressure;BME280_temperature;BME280_humidity;BME280_pressure;Samples;Min_cycle;Max_cycle;Signal;HPM_P1;HPM_P2
2023/03/09 08:43:23;;;;;;;;;1.00;0.50;;;;;18.76;47.52;99758.34;5054630;27;45896;-75
2023/03/09 08:45:52;;;;;;;;;0.00;0.00;;;;;19.21;48.72;99750.97;5047546;28;45954;-78
2023/03/09 08:48:17;;;;;;;;;2.00;1.00;;;;;19.84;49.26;99745.16;5054180;28;45428;-75
2023/03/09 08:50:42;;;;;;;;;1.00;0.00;;;;;20.76;48.52;99759.38;5050228;28;45665;-77
2023/03/09 08:53:08;;;;;;;;;0.00;0.00;;;;;21.54;47.64;99764.09;5048155;28;45582;-76
2023/03/09 08:55:33;;;;;;;;;1.00;1.00;;;;;22.15;46.51;99760.59;5048596;28;45382;-74
2023/03/09 08:57:59;;;;;;;;;1.67;1.00;;;;;22.79;45.54;99765.69;5048900;28;45507;-74
2023/03/09 09:00:24;;;;;;;;;3.00;2.00;;;;;23.30;44.64;99760.31;5049631;28;45788;-77
2023/03/09 09:02:49;;;;;;;;;1.33;0.00;;;;;23.81;44.05;99755.88;5048712;28;45861;-76
2023/03/09 09:05:15;;;;;;;;;1.00;1.00;;;;;24.23;43.14;99759.78;5048232;28;45467;-77
2023/03/09 09:07:40;;;;;;;;;0.00;0.00;;;;;24.57;42.45;99760.84;5050198;28;45997;-79
2023/03/09 09:10:06;;;;;;;;;2.00;0.33;;;;;24.97;41.89;99763.78;5050404;28;45474;-77
2023/03/09 09:12:36;;;;;;;;;1.67;1.00;;;;;25.25;40.97;99757.41;5050161;28;46492;-77
2023/03/09 09:15:01;;;;;;;;;1.00;1.00;;;;;25.50;40.38;99754.13;5047212;28;45522;-79
2023/03/09 09:17:26;;;;;;;;;2.67;0.67;;;;;25.73;40.35;99749.38;5047868;28;45532;-78
2023/03/09 09:19:52;;;;;;;;;1.00;1.00;;;;;25.98;39.90;99756.94;5046698;28;45564;-79
2023/03/09 09:22:17;;;;;;;;;2.33;1.33;;;;;26.16;39.31;99750.88;5049014;28;45647;-76
2023/03/09 09:24:42;;;;;;;;;2.00;0.67;;;;;26.34;39.07;99755.69;5047508;28;45377;-78
2023/03/09 09:27:09;;;;;;;;;1.00;0.67;;;;;26.55;38.93;99762.78;5052391;28;45565;-78
2023/03/09 09:29:35;;;;;;;;;2.00;0.00;;;;;26.65;38.25;99748.72;5051780;28;45404;-77
2023/03/09 09:32:03;;;;;;;;;0.00;0.00;;;;;26.83;37.89;99755.38;5053172;28;45502;-77
2023/03/09 09:34:33;;;;;;;;;1.00;1.00;;;;;27.00;37.77;99763.06;5068863;27;45369;-75
2023/03/09 09:37:03;;;;;;;;;0.67;0.00;;;;;27.08;37.90;99760.97;5052511;28;45421;-74
2023/03/09 09:39:29;;;;;;;;;1.00;1.00;;;;;27.20;37.73;99758.38;5044691;28;45587;-76
2023/03/09 09:41:58;;;;;;;;;0.00;0.00;;;;;27.27;37.19;99758.34;5053768;28;45438;-74
2023/03/09 09:44:32;;;;;;;;;2.67;1.00;;;;;27.38;36.50;99753.28;5046487;28;45986;-74
2023/03/09 09:47:05;;;;;;;;;0.00;0.00;;;;;27.40;36.46;99732.91;5053610;28;45510;-74
2023/03/09 09:49:38;;;;;;;;;0.33;0.33;;;;;27.50;36.00;99743.31;5045649;27;46102;-74
2023/03/09 09:52:16;;;;;;;;;0.00;0.00;;;;;27.57;35.77;99743.28;5050416;28;45467;-76
2023/03/09 09:55:08;;;;;;;;;0.00;0.00;;;;;27.57;35.80;99748.72;5039957;28;45495;-74
2023/03/09 09:57:39;;;;;;;;;1.00;1.00;;;;;27.60;35.40;99738.28;5017407;28;45420;-76
2023/03/09 10:00:15;;;;;;;;;1.00;1.00;;;;;27.58;35.08;99734.03;5017349;28;45598;-76
2023/03/09 10:02:46;;;;;;;;;0.33;0.33;;;;;27.68;34.88;99739.91;5018520;28;45488;-77
2023/03/09 10:05:26;;;;;;;;;1.00;1.00;;;;;27.73;34.75;99729.16;5016557;28;45495;-76
2023/03/09 10:07:54;;;;;;;;;0.00;0.00;;;;;27.76;34.81;99733.34;5016801;28;45569;-75
2023/03/09 10:10:24;;;;;;;;;1.00;0.33;;;;;27.80;35.05;99729.13;5016661;28;45510;-75
2023/03/09 10:12:49;;;;;;;;;0.00;0.00;;;;;27.83;34.79;99727.84;4998653;28;47246;-75
2023/03/09 10:15:29;;;;;;;;;3.00;0.00;;;;;27.91;34.16;99724.81;5008660;28;45658;-72
2023/03/09 10:18:01;;;;;;;;;3.00;1.33;;;;;27.95;34.23;99734.22;5003971;28;45794;-74
2023/03/09 10:20:32;;;;;;;;;1.00;1.00;;;;;27.99;34.07;99729.16;5009407;28;45892;-76
2023/03/09 10:22:58;;;;;;;;;0.00;0.00;;;;;28.02;34.10;99739.63;5013051;28;46383;-74
2023/03/09 10:25:27;;;;;;;;;0.00;0.00;;;;;28.05;34.47;99743.78;5014327;28;45463;-75
2023/03/09 10:28:11;;;;;;;;;1.00;1.00;;;;;28.06;33.65;99731.81;5013456;28;45473;-76
2023/03/09 10:30:56;;;;;;;;;2.67;0.00;;;;;27.97;33.94;99723.94;5012801;28;45476;-77
2023/03/09 10:33:37;;;;;;;;;0.67;0.67;;;;;28.02;33.15;99737.72;5013749;28;46103;-76
2023/03/09 10:36:18;;;;;;;;;0.33;0.00;;;;;28.00;33.16;99723.47;5028592;28;45730;-75
2023/03/09 10:38:43;;;;;;;;;0.67;0.67;;;;;27.97;32.97;99729.41;5024523;28;45517;-75
2023/03/09 10:41:19;;;;;;;;;1.00;0.00;;;;;27.96;32.72;99726.88;5034341;28;45437;-76
2023/03/09 10:43:46;;;;;;;;;0.67;0.00;;;;;27.90;33.02;99722.31;5033123;28;46606;-78
2023/03/09 10:46:16;;;;;;;;;1.00;1.00;;;;;27.88;32.95;99728.00;5034564;28;45950;-77
2023/03/09 10:48:44;;;;;;;;;3.00;1.00;;;;;27.91;32.99;99724.81;5036142;28;45618;-75
2023/03/09 10:51:36;;;;;;;;;1.67;1.00;;;;;27.95;32.75;99731.50;5034549;28;45804;-75
2023/03/09 10:54:23;;;;;;;;;3.00;1.00;;;;;27.99;32.45;99715.50;5041167;28;47259;-75
2023/03/09 10:56:48;;;;;;;;;1.00;1.00;;;;;27.99;32.38;99710.91;5035523;28;45458;-74
2023/03/09 10:59:22;;;;;;;;;2.67;1.00;;;;;28.03;32.95;99716.72;5034530;28;45410;-74
2023/03/09 11:01:51;;;;;;;;;2.33;1.00;;;;;28.04;32.65;99701.22;5032611;28;45523;-73
2023/03/09 11:04:22;;;;;;;;;2.67;2.00;;;;;28.04;32.33;99712.97;5033229;28;45551;-83
2023/03/09 11:06:55;;;;;;;;;4.00;2.00;;;;;28.05;32.19;99709.19;5029604;28;45507;-83
2023/03/09 11:09:30;;;;;;;;;3.00;3.00;;;;;28.06;32.56;99712.72;5031448;28;45788;-84
2023/03/09 11:12:09;;;;;;;;;3.00;1.00;;;;;28.05;31.84;99711.06;5033765;28;45528;-82
2023/03/09 11:14:42;;;;;;;;;2.33;1.33;;;;;28.01;32.37;99707.94;5032780;28;46403;-83
2023/03/09 11:17:37;;;;;;;;;2.67;1.67;;;;;28.01;31.76;99710.69;5033516;28;45363;-82
2023/03/09 11:20:22;;;;;;;;;2.00;2.00;;;;;27.92;32.43;99698.38;5032242;28;45943;-81
2023/03/09 11:22:54;;;;;;;;;2.00;0.67;;;;;27.93;32.29;99692.72;5031935;28;45475;-82
2023/03/09 11:25:45;;;;;;;;;2.00;2.00;;;;;27.93;32.14;99689.13;5029606;28;46444;-82
2023/03/09 11:28:23;;;;;;;;;5.00;1.00;;;;;27.91;31.51;99697.53;4991404;28;45516;-82
2023/03/09 11:30:53;;;;;;;;;4.33;1.00;;;;;27.89;31.74;99699.66;4994605;28;45760;-85
2023/03/09 11:33:20;;;;;;;;;1.00;1.00;;;;;27.87;31.79;99702.63;4994111;28;45907;-84
2023/03/09 11:35:50;;;;;;;;;5.33;1.00;;;;;27.84;31.28;99700.31;4991407;28;46485;-83
2023/03/09 11:38:19;;;;;;;;;3.33;2.67;;;;;27.82;31.82;99707.91;4989447;28;45938;-81
2023/03/09 11:40:47;;;;;;;;;1.00;1.00;;;;;27.73;31.72;99693.72;4991781;28;45810;-82
2023/03/09 11:43:21;;;;;;;;;2.67;1.00;;;;;27.79;31.80;99702.88;4998556;28;45439;-82
2023/03/09 11:45:47;;;;;;;;;1.00;1.00;;;;;27.80;31.19;99693.66;4990024;28;46243;-82
2023/03/09 11:48:34;;;;;;;;;1.00;1.00;;;;;27.81;31.17;99683.59;4999531;28;45924;-83
2023/03/09 11:51:11;;;;;;;;;1.00;1.00;;;;;27.79;31.49;99683.81;4991766;28;45534;-82
2023/03/09 11:53:45;;;;;;;;;2.33;1.67;;;;;27.84;31.45;99685.88;4995305;28;45472;-81
2023/03/09 11:56:16;;;;;;;;;1.00;1.00;;;;;27.87;31.71;99685.41;4997689;28;45525;-82
2023/03/09 11:58:45;;;;;;;;;1.00;1.00;;;;;27.90;30.90;99676.78;4989551;28;45672;-83
2023/03/09 12:01:24;;;;;;;;;2.67;2.00;;;;;27.95;30.95;99678.88;4992224;28;45519;-84
2023/03/09 12:03:58;;;;;;;;;1.33;1.33;;;;;27.99;30.83;99671.88;4991971;28;45590;-84
2023/03/09 12:06:32;;;;;;;;;2.00;1.67;;;;;28.03;31.35;99681.28;5029680;28;46376;-76
2023/03/09 12:09:01;;;;;;;;;1.33;0.00;;;;;28.03;30.59;99670.38;5031107;28;45883;-75
2023/03/09 12:11:41;;;;;;;;;2.67;2.00;;;;;28.03;30.73;99670.38;5031840;28;46564;-77
2023/03/09 12:14:20;;;;;;;;;1.00;1.00;;;;;28.03;30.82;99678.56;5037166;28;45543;-81
2023/03/09 12:16:48;;;;;;;;;2.33;2.33;;;;;28.01;30.43;99675.22;5039329;28;46052;-82
2023/03/09 12:19:19;;;;;;;;;3.00;1.00;;;;;27.99;31.04;99666.41;5044108;28;45321;-77
2023/03/09 12:22:02;;;;;;;;;3.33;3.33;;;;;28.02;30.47;99655.91;5044756;28;45461;-75
2023/03/09 12:24:30;;;;;;;;;3.33;3.00;;;;;28.02;30.47;99647.75;5052659;28;45652;-76
2023/03/09 12:27:03;;;;;;;;;1.33;1.33;;;;;27.99;30.41;99645.44;5047910;28;45487;-75
2023/03/09 12:29:36;;;;;;;;;3.00;2.00;;;;;27.98;30.94;99649.25;5052944;28;45560;-76
2023/03/09 12:32:35;;;;;;;;;2.33;1.67;;;;;27.97;30.32;99636.69;5052975;28;45447;-77
2023/03/09 12:35:21;;;;;;;;;1.67;0.67;;;;;27.95;30.41;99633.31;5040416;28;45504;-76
2023/03/09 12:38:20;;;;;;;;;2.33;1.00;;;;;27.93;30.93;99646.34;5038870;28;47764;-76
2023/03/09 12:40:46;;;;;;;;;4.00;1.00;;;;;27.91;30.30;99636.75;5051047;28;45493;-76
2023/03/09 12:43:15;;;;;;;;;2.33;1.33;;;;;27.87;30.87;99633.59;5043244;28;45508;-76
2023/03/09 12:45:44;;;;;;;;;5.67;2.33;;;;;27.82;31.05;99631.56;5035145;28;45504;-76
2023/03/09 12:48:11;;;;;;;;;1.00;1.00;;;;;27.82;30.40;99626.13;5037543;28;45547;-78
2023/03/09 12:50:42;;;;;;;;;2.00;2.00;;;;;27.81;30.27;99631.78;5029737;28;45736;-78
2023/03/09 12:53:22;;;;;;;;;2.67;1.33;;;;;27.81;30.45;99618.16;5030225;28;45465;-78
2023/03/09 12:55:57;;;;;;;;;1.67;1.67;;;;;27.82;30.90;99620.66;5022770;28;45751;-81
2023/03/09 12:58:22;;;;;;;;;2.33;1.00;;;;;27.87;31.17;99612.63;5027872;28;47304;-79
2023/03/09 13:01:03;;;;;;;;;3.33;1.33;;;;;27.92;31.46;99619.31;5026740;28;45447;-81
2023/03/09 13:03:31;;;;;;;;;3.33;2.00;;;;;27.93;30.93;99610.91;5031102;28;45472;-80
2023/03/09 13:05:59;;;;;;;;;1.00;1.00;;;;;27.95;31.59;99606.06;5030023;28;45431;-81
2023/03/09 13:08:30;;;;;;;;;2.00;2.00;;;;;28.00;31.11;99608.13;5031694;28;45512;-81
2023/03/09 13:11:21;;;;;;;;;2.00;1.00;;;;;28.04;31.15;99603.88;5030968;28;47115;-78
2023/03/09 13:13:47;;;;;;;;;1.33;0.67;;;;;28.06;31.38;99595.44;5027621;28;45475;-78
2023/03/09 13:16:30;;;;;;;;;3.67;1.00;;;;;28.10;31.91;99585.75;5029237;28;45832;-79
2023/03/09 13:19:20;;;;;;;;;1.33;1.00;;;;;28.15;31.79;99594.09;5029781;28;46526;-82
2023/03/09 13:21:55;;;;;;;;;2.00;2.00;;;;;28.17;31.92;99588.41;5038633;28;45494;-82
2023/03/09 13:24:35;;;;;;;;;4.33;3.33;;;;;28.19;31.58;99578.94;5029775;28;45408;-80
2023/03/09 13:27:09;;;;;;;;;1.67;0.33;;;;;28.22;31.39;99572.19;5031448;28;45518;-85
2023/03/09 13:29:37;;;;;;;;;1.33;1.33;;;;;28.17;31.42;99552.94;5034478;28;46394;-82
2023/03/09 13:32:21;;;;;;;;;2.33;2.33;;;;;28.26;32.05;99563.38;5036602;28;45369;-80
2023/03/09 13:34:47;;;;;;;;;2.67;2.00;;;;;28.27;32.21;99558.72;5035764;28;45543;-80
2023/03/09 13:37:17;;;;;;;;;3.00;1.33;;;;;28.29;32.17;99545.69;5035874;28;45463;-79
2023/03/09 13:40:00;;;;;;;;;1.67;1.67;;;;;28.35;31.47;99563.03;5035616;28;46423;-84
2023/03/09 13:42:29;;;;;;;;;1.00;1.00;;;;;28.31;31.49;99559.94;5032836;28;46088;-76
2023/03/09 13:44:55;;;;;;;;;1.00;1.00;;;;;28.37;31.61;99553.56;5035875;28;45475;-80
2023/03/09 13:47:26;;;;;;;;;4.00;2.00;;;;;28.39;32.06;99543.25;5035162;28;45601;-78
2023/03/09 13:49:54;;;;;;;;;3.00;1.00;;;;;28.43;31.59;99538.16;5036917;28;46191;-76
2023/03/09 13:52:20;;;;;;;;;3.33;0.00;;;;;28.46;31.80;99542.31;5033926;28;45447;-78
2023/03/09 13:54:53;;;;;;;;;1.33;1.00;;;;;28.46;31.58;99531.41;5035808;28;45430;-79
2023/03/09 13:57:33;;;;;;;;;3.00;1.67;;;;;28.40;32.13;99508.59;5031655;28;45633;-74
2023/03/09 14:00:16;;;;;;;;;2.00;1.00;;;;;28.47;31.83;99528.47;5027958;28;46631;-76
2023/03/09 14:02:42;;;;;;;;;2.00;2.00;;;;;28.45;31.88;99508.75;5027862;28;45598;-75
2023/03/09 14:05:13;;;;;;;;;3.33;2.00;;;;;28.49;31.69;99509.13;5034653;28;45490;-81
2023/03/09 14:07:47;;;;;;;;;4.67;3.00;;;;;28.50;32.21;99510.78;5047358;28;45412;-80
2023/03/09 14:10:31;;;;;;;;;2.00;1.00;;;;;28.49;32.31;99500.94;5027943;28;46918;-77
2023/03/09 14:13:03;;;;;;;;;2.00;2.00;;;;;28.52;32.14;99514.09;5030611;28;45483;-85
2023/03/09 14:15:29;;;;;;;;;1.00;1.00;;;;;28.55;32.20;99505.47;5033649;28;45400;-78
2023/03/09 14:17:57;;;;;;;;;3.00;0.33;;;;;28.60;31.99;99499.31;5044792;28;45375;-78
2023/03/09 14:20:37;;;;;;;;;2.67;0.00;;;;;28.62;31.63;99506.22;5039592;28;46955;-76
2023/03/09 14:23:16;;;;;;;;;0.33;0.33;;;;;28.61;31.63;99493.59;5036758;28;45368;-75
2023/03/09 14:25:42;;;;;;;;;2.00;1.33;;;;;28.66;32.03;99492.91;5030804;28;45601;-73
2023/03/09 14:28:30;;;;;;;;;2.33;0.67;;;;;28.66;32.15;99487.47;5031808;28;45485;-78
2023/03/09 14:31:10;;;;;;;;;5.00;2.00;;;;;28.58;32.12;99479.59;5042871;28;46023;-72
2023/03/09 14:33:37;;;;;;;;;2.67;2.67;;;;;28.64;31.11;99467.72;5035657;28;45615;-73
2023/03/09 14:36:17;;;;;;;;;1.00;1.00;;;;;28.58;31.24;99464.06;5035003;28;45455;-76
2023/03/09 14:38:53;;;;;;;;;1.00;1.00;;;;;28.56;30.95;99468.91;5022868;28;45653;-73
2023/03/09 14:41:22;;;;;;;;;2.67;2.67;;;;;28.50;31.03;99459.78;5039513;28;46110;-76
2023/03/09 14:43:49;;;;;;;;;2.67;2.00;;;;;28.51;30.58;99455.13;5041178;28;45406;-75
2023/03/09 14:46:20;;;;;;;;;4.00;2.33;;;;;28.51;31.20;99457.84;5040026;28;45431;-76
2023/03/09 14:48:51;;;;;;;;;1.00;1.00;;;;;28.48;30.72;99450.16;5046263;28;45431;-77
2023/03/09 14:51:20;;;;;;;;;2.00;2.00;;;;;28.49;30.81;99438.97;5051130;28;46086;-74
2023/03/09 14:54:02;;;;;;;;;2.67;1.00;;;;;28.51;31.30;99444.22;5045995;28;45569;-74
2023/03/09 14:56:30;;;;;;;;;5.00;2.33;;;;;28.48;30.85;99437.31;5037942;28;45416;-74
2023/03/09 14:58:58;;;;;;;;;2.00;2.00;;;;;28.44;30.71;99433.41;5044650;28;45468;-80
2023/03/09 15:01:24;;;;;;;;;1.00;1.00;;;;;28.43;30.87;99428.16;5046378;28;45897;-77
2023/03/09 15:03:50;;;;;;;;;3.00;2.00;;;;;28.45;31.40;99434.25;5041707;28;45590;-77
2023/03/09 15:06:15;;;;;;;;;6.67;1.00;;;;;28.46;31.02;99419.53;5035613;28;45781;-77
2023/03/09 15:08:42;;;;;;;;;3.67;2.67;;;;;28.47;31.08;99415.72;5043500;28;45396;-71
2023/03/09 15:11:07;;;;;;;;;1.00;1.00;;;;;28.49;31.49;99422.59;5042669;28;46139;-72
2023/03/09 15:13:34;;;;;;;;;4.00;4.00;;;;;28.47;30.69;99411.09;5029754;28;45780;-75
2023/03/09 15:15:59;;;;;;;;;1.00;1.00;;;;;28.46;30.72;99412.19;5048811;28;45566;-75
2023/03/09 15:18:25;;;;;;;;;2.00;2.00;;;;;28.44;30.90;99410.75;5047148;28;45435;-75
2023/03/09 15:20:50;;;;;;;;;3.00;2.67;;;;;28.44;30.56;99408.84;5037420;28;46740;-75
2023/03/09 15:23:15;;;;;;;;;1.00;1.00;;;;;28.45;31.05;99404.22;5041642;28;45474;-75
2023/03/09 15:25:42;;;;;;;;;3.67;1.00;;;;;28.44;31.16;99408.84;5054246;28;45737;-76
2023/03/09 15:28:08;;;;;;;;;3.00;1.67;;;;;28.44;30.43;99403.38;5034786;28;45871;-76
2023/03/09 15:30:34;;;;;;;;;0.33;0.33;;;;;28.39;30.75;99389.63;5053511;28;45478;-76
2023/03/09 15:32:59;;;;;;;;;1.00;1.00;;;;;28.37;30.67;99384.38;5047463;28;45627;-76
2023/03/09 15:35:25;;;;;;;;;1.00;1.00;;;;;28.32;30.41;99378.00;5053935;28;45659;-76
2023/03/09 15:37:50;;;;;;;;;4.00;1.00;;;;;28.26;30.64;99377.84;5052743;28;45558;-76
2023/03/09 15:40:17;;;;;;;;;1.00;1.00;;;;;28.19;30.12;99370.81;5040980;28;46296;-76
2023/03/09 15:42:43;;;;;;;;;1.00;1.00;;;;;28.20;29.98;99369.75;5045396;28;45415;-75
2023/03/09 15:45:11;;;;;;;;;2.00;2.00;;;;;28.18;30.33;99358.22;5045653;28;45441;-73
2023/03/09 15:47:37;;;;;;;;;1.33;1.33;;;;;28.14;29.98;99355.97;5052764;28;45662;-73
2023/03/09 15:50:04;;;;;;;;;0.67;0.00;;;;;28.11;30.52;99356.44;5045921;28;47136;-75
2023/03/09 15:52:29;;;;;;;;;0.00;0.00;;;;;28.10;30.69;99351.19;5033374;28;45352;-74
2023/03/09 15:54:54;;;;;;;;;2.00;0.00;;;;;28.09;29.78;99341.38;5033618;28;45417;-74
2023/03/09 15:57:20;;;;;;;;;1.67;0.33;;;;;28.07;29.87;99343.50;5033663;28;45425;-74
2023/03/09 15:59:45;;;;;;;;;2.00;1.00;;;;;28.05;29.82;99334.72;5033825;28;45551;-74
2023/03/09 16:02:11;;;;;;;;;0.33;0.33;;;;;28.05;30.19;99332.81;5032817;28;45526;-74
2023/03/09 16:04:36;;;;;;;;;3.00;1.33;;;;;28.05;30.13;99335.56;5046889;28;45392;-76
2023/03/09 16:07:02;;;;;;;;;0.00;0.00;;;;;28.02;30.10;99330.56;5035618;28;45536;-76
2023/03/09 16:09:27;;;;;;;;;3.33;2.00;;;;;28.04;30.43;99324.88;5037845;28;45579;-77
2023/03/09 16:11:53;;;;;;;;;2.33;2.00;;;;;28.01;29.90;99328.91;5034002;28;45373;-70
2023/03/09 16:14:19;;;;;;;;;4.00;2.67;;;;;27.98;29.89;99318.44;5034236;28;46219;-74
2023/03/09 16:16:44;;;;;;;;;2.00;1.00;;;;;28.02;30.08;99312.31;5033270;28;45618;-73
2023/03/09 16:19:10;;;;;;;;;0.00;0.00;;;;;28.00;30.84;99298.06;5039162;28;46309;-74
2023/03/09 16:21:35;;;;;;;;;2.00;2.00;;;;;28.10;30.91;99302.13;5032195;28;45752;-74
2023/03/09 16:24:00;;;;;;;;;0.67;0.67;;;;;28.15;30.54;99305.81;5035500;28;45551;-74
2023/03/09 16:26:26;;;;;;;;;2.00;2.00;;;;;28.12;30.96;99287.19;5046502;28;45701;-74
2023/03/09 16:28:51;;;;;;;;;3.00;1.00;;;;;28.29;30.72;99300.16;5043035;28;45901;-74
2023/03/09 16:31:19;;;;;;;;;1.00;1.00;;;;;28.36;31.28;99300.06;5044299;28;45483;-75
2023/03/09 16:33:45;;;;;;;;;1.00;1.00;;;;;28.41;30.68;99301.00;5020453;28;45500;-75
2023/03/09 16:36:10;;;;;;;;;3.00;1.00;;;;;28.44;30.79;99285.22;5033657;28;45699;-74
2023/03/09 16:38:36;;;;;;;;;1.00;1.00;;;;;28.48;30.59;99275.50;5029957;28;45734;-84
2023/03/09 16:41:09;;;;;;;;;1.00;1.00;;;;;28.52;30.84;99272.06;5028151;28;45663;-76
2023/03/09 16:43:35;;;;;;;;;1.00;1.00;;;;;28.58;31.34;99266.72;5029413;28;45548;-75
2023/03/09 16:46:01;;;;;;;;;1.00;1.00;;;;;28.63;31.32;99258.63;5031211;28;45603;-74
2023/03/09 16:48:26;;;;;;;;;2.00;2.00;;;;;28.65;31.59;99245.59;5030977;28;46010;-71
2023/03/09 16:50:56;;;;;;;;;1.00;1.00;;;;;28.66;31.12;99244.53;5033207;28;45344;-71
2023/03/09 16:53:22;;;;;;;;;2.00;2.00;;;;;28.71;31.26;99238.31;5033623;28;45542;-72
2023/03/09 16:56:07;;;;;;;;;1.00;1.00;;;;;28.76;31.24;99235.69;5033736;28;45427;-73
2023/03/09 16:58:34;;;;;;;;;2.00;1.00;;;;;28.74;31.35;99213.28;5029423;28;46550;-73
2023/03/09 17:01:00;;;;;;;;;1.67;0.33;;;;;28.79;30.93;99227.03;5035993;28;45579;-74
2023/03/09 17:03:27;;;;;;;;;2.67;1.00;;;;;28.80;31.59;99207.69;5034992;28;45463;-74
2023/03/09 17:05:53;;;;;;;;;0.00;0.00;;;;;28.80;30.72;99204.13;5033562;28;45766;-73
2023/03/09 17:08:19;;;;;;;;;1.00;1.00;;;;;28.83;30.93;99200.91;5031983;28;46440;-75
2023/03/09 17:10:46;;;;;;;;;1.33;0.00;;;;;28.83;31.66;99190.00;5033371;28;45514;-74
2023/03/09 17:13:12;;;;;;;;;2.67;2.00;;;;;28.77;31.25;99167.22;5036498;28;45737;-72
2023/03/09 17:15:38;;;;;;;;;3.00;1.00;;;;;28.83;31.48;99170.06;5032723;28;45678;-73
2023/03/09 17:18:04;;;;;;;;;2.33;1.00;;;;;28.87;31.23;99182.16;5034512;28;46510;-77
2023/03/09 17:20:29;;;;;;;;;2.00;0.33;;;;;28.87;31.40;99182.16;5040918;28;45736;-73
2023/03/09 17:22:55;;;;;;;;;1.33;0.67;;;;;28.82;30.53;99191.09;5048114;28;45370;-77
2023/03/09 17:25:22;;;;;;;;;0.67;0.00;;;;;28.87;30.95;99185.72;5043164;28;45442;-77
2023/03/09 17:27:49;;;;;;;;;0.67;0.67;;;;;28.83;30.79;99190.00;5047203;28;47255;-75
2023/03/09 17:30:21;;;;;;;;;0.00;0.00;;;;;28.77;30.04;99182.78;5046873;28;45516;-74
2023/03/09 17:32:47;;;;;;;;;1.00;1.00;;;;;28.67;29.89;99178.78;5035029;28;45451;-74
2023/03/09 17:35:12;;;;;;;;;1.67;1.00;;;;;28.61;30.34;99207.00;5050097;28;45664;-73
2023/03/09 17:37:38;;;;;;;;;3.00;1.33;;;;;28.59;30.22;99200.13;5043690;28;46077;-73
2023/03/09 17:40:08;;;;;;;;;2.00;1.67;;;;;28.53;30.53;99216.41;5049444;28;45589;-74
2023/03/09 17:42:35;;;;;;;;;1.67;1.00;;;;;28.54;30.36;99234.44;5036388;28;45523;-74
2023/03/09 17:45:00;;;;;;;;;0.67;0.67;;;;;28.53;30.69;99223.78;5047516;28;45567;-72
2023/03/09 17:47:28;;;;;;;;;2.33;1.00;;;;;28.55;30.15;99216.16;5035214;28;45412;-77
2023/03/09 17:49:53;;;;;;;;;1.67;1.67;;;;;28.58;30.15;99212.97;5036040;28;45671;-77
2023/03/09 17:52:18;;;;;;;;;4.00;2.00;;;;;28.57;30.80;99186.72;5040068;28;45444;-77
2023/03/09 17:54:44;;;;;;;;;2.33;1.00;;;;;28.62;30.12;99189.59;5042717;28;47397;-73
2023/03/09 17:57:09;;;;;;;;;3.00;1.33;;;;;28.63;30.53;99193.13;5041980;28;49954;-73
2023/03/09 17:59:35;;;;;;;;;1.67;1.67;;;;;28.62;29.57;99191.47;5041954;28;46182;-73
2023/03/09 18:02:02;;;;;;;;;2.00;2.00;;;;;28.58;29.66;99185.69;5040529;28;45503;-73
2023/03/09 18:04:28;;;;;;;;;1.00;1.00;;;;;28.53;29.83;99191.84;5034522;28;45440;-73
2023/03/09 18:06:53;;;;;;;;;2.33;2.33;;;;;28.50;30.04;99183.31;5034981;28;45739;-74
2023/03/09 18:09:18;;;;;;;;;2.00;0.67;;;;;28.46;30.03;99171.22;5038967;28;45447;-74
2023/03/09 18:11:44;;;;;;;;;2.00;0.00;;;;;28.38;29.49;99172.41;5040889;28;45720;-74
2023/03/09 18:14:10;;;;;;;;;2.00;0.33;;;;;28.32;29.96;99159.75;5031381;28;45600;-74
2023/03/09 18:16:35;;;;;;;;;1.00;1.00;;;;;28.27;30.25;99172.19;5033871;28;46010;-74
2023/03/09 18:19:01;;;;;;;;;3.00;1.00;;;;;28.23;29.46;99173.69;5034295;28;45483;-74
2023/03/09 18:21:26;;;;;;;;;1.00;0.67;;;;;28.20;29.22;99165.16;5034703;28;45561;-75
2023/03/09 18:23:52;;;;;;;;;2.67;1.00;;;;;28.18;29.62;99168.13;5032121;28;45515;-74
2023/03/09 18:26:23;;;;;;;;;1.67;1.67;;;;;28.17;30.31;99168.38;5032958;28;47072;-74
2023/03/09 18:28:49;;;;;;;;;0.00;0.00;;;;;28.11;29.97;99162.78;5038447;28;45438;-75
2023/03/09 18:31:15;;;;;;;;;1.00;1.00;;;;;28.13;29.89;99159.84;5040772;28;45519;-74
2023/03/09 18:33:41;;;;;;;;;2.00;0.00;;;;;28.08;29.92;99157.00;5032988;28;45618;-74
2023/03/09 18:36:10;;;;;;;;;1.00;1.00;;;;;28.10;30.16;99157.56;5040124;28;46705;-74
2023/03/09 18:38:37;;;;;;;;;0.67;0.67;;;;;28.08;29.63;99157.00;5043911;28;45643;-75
2023/03/09 18:41:02;;;;;;;;;4.00;1.00;;;;;28.04;29.86;99145.75;5041618;28;45471;-74
2023/03/09 18:43:27;;;;;;;;;2.00;0.67;;;;;28.04;29.50;99153.91;5043140;28;45647;-75
2023/03/09 18:45:53;;;;;;;;;2.33;1.00;;;;;28.03;29.48;99154.97;5040112;28;46200;-75
2023/03/09 18:48:18;;;;;;;;;2.00;1.00;;;;;28.02;29.96;99145.97;5039833;28;45593;-73
2023/03/09 18:50:43;;;;;;;;;0.00;0.00;;;;;27.97;29.67;99134.94;5043167;28;45812;-73
2023/03/09 18:53:10;;;;;;;;;1.00;1.00;;;;;27.93;29.50;99144.66;5041787;28;45840;-73
2023/03/09 18:55:39;;;;;;;;;2.00;2.00;;;;;27.92;29.56;99143.00;5035643;28;46032;-73
2023/03/09 18:58:05;;;;;;;;;1.00;1.00;;;;;27.87;30.28;99138.25;5036254;28;45792;-73
2023/03/09 19:00:32;;;;;;;;;5.00;2.00;;;;;27.86;29.62;99139.31;5038230;28;45337;-73
2023/03/09 19:02:58;;;;;;;;;2.67;2.67;;;;;27.86;30.19;99135.75;5032266;28;45451;-73
2023/03/09 19:05:23;;;;;;;;;3.67;2.00;;;;;27.82;30.25;99123.66;5030034;28;46208;-73
2023/03/09 19:07:49;;;;;;;;;2.33;2.33;;;;;27.83;30.20;99131.63;5039115;28;45436;-73
2023/03/09 19:10:14;;;;;;;;;2.67;2.00;;;;;27.82;29.56;99118.22;5024181;28;47263;-73
2023/03/09 19:12:39;;;;;;;;;3.00;1.33;;;;;27.80;29.91;99118.47;5019257;28;47260;-73
2023/03/09 19:15:05;;;;;;;;;1.33;1.33;;;;;27.79;30.38;99113.25;5013005;28;46198;-72
2023/03/09 19:17:30;;;;;;;;;0.00;0.00;;;;;27.84;30.33;99121.56;5017392;28;47537;-73
2023/03/09 19:19:56;;;;;;;;;2.00;0.33;;;;;27.77;29.84;99112.66;5033732;28;45822;-73
2023/03/09 19:22:22;;;;;;;;;2.00;2.00;;;;;27.81;30.11;99117.41;5031130;28;45612;-73
2023/03/09 19:24:47;;;;;;;;;1.00;1.00;;;;;27.75;30.45;99091.91;5033016;28;45463;-73
2023/03/09 19:27:14;;;;;;;;;1.33;1.33;;;;;27.83;30.21;99098.09;5032297;28;45423;-73
2023/03/09 19:29:39;;;;;;;;;2.00;2.00;;;;;27.83;29.85;99100.81;5033122;28;45420;-73
2023/03/09 19:32:05;;;;;;;;;2.00;0.67;;;;;27.83;30.35;99096.19;5030279;28;45570;-73
2023/03/09 19:34:30;;;;;;;;;1.00;1.00;;;;;27.75;30.58;99083.75;5032795;28;46280;-73
2023/03/09 19:36:56;;;;;;;;;4.00;1.00;;;;;27.84;30.54;99084.19;5031085;28;45356;-75
2023/03/09 19:39:22;;;;;;;;;2.00;2.00;;;;;27.88;29.86;99082.66;5034006;28;46021;-73
2023/03/09 19:41:48;;;;;;;;;0.33;0.00;;;;;27.87;30.41;99086.47;5039277;28;45436;-72
2023/03/09 19:44:14;;;;;;;;;1.00;1.00;;;;;27.92;29.82;99079.47;5033402;28;45788;-73
2023/03/09 19:46:39;;;;;;;;;1.00;1.00;;;;;27.92;29.70;99090.38;5042190;28;45871;-72
2023/03/09 19:49:05;;;;;;;;;1.00;1.00;;;;;27.90;30.13;99087.06;5035601;28;45408;-72
2023/03/09 19:51:32;;;;;;;;;1.33;1.33;;;;;27.93;30.22;99081.13;5039660;28;46293;-75
2023/03/09 19:53:59;;;;;;;;;0.33;0.33;;;;;27.91;30.19;99059.53;5036926;28;47297;-72
2023/03/09 19:56:30;;;;;;;;;1.67;1.33;;;;;27.88;30.32;99071.75;5035326;28;45451;-72
2023/03/09 19:58:58;;;;;;;;;1.33;0.33;;;;;27.92;29.57;99082.19;5031768;28;45558;-76
2023/03/09 20:01:31;;;;;;;;;1.00;1.00;;;;;27.93;29.57;99073.78;5025868;28;45891;-73
2023/03/09 20:04:05;;;;;;;;;1.00;1.00;;;;;27.92;30.07;99068.56;5032294;28;46344;-72
2023/03/09 20:06:34;;;;;;;;;0.00;0.00;;;;;27.92;30.27;99063.09;5035190;28;45404;-72
2023/03/09 20:09:00;;;;;;;;;3.00;1.00;;;;;27.94;29.88;99063.69;5032135;28;45482;-71
2023/03/09 20:11:25;;;;;;;;;1.67;1.67;;;;;27.94;29.83;99055.50;5034205;28;45473;-72
2023/03/09 20:13:54;;;;;;;;;4.33;1.00;;;;;27.96;30.03;99050.66;5038148;28;46981;-72
2023/03/09 20:16:22;;;;;;;;;0.33;0.33;;;;;27.99;30.20;99064.63;5032416;28;45781;-72
2023/03/09 20:18:50;;;;;;;;;2.67;1.00;;;;;28.00;29.83;99066.28;5034293;28;46576;-72
2023/03/09 20:21:15;;;;;;;;;1.00;1.00;;;;;27.96;30.05;99048.75;5032566;28;45491;-72
2023/03/09 20:23:41;;;;;;;;;2.67;1.67;;;;;27.98;30.10;99048.50;5034736;28;45655;-72
2023/03/09 20:26:11;;;;;;;;;0.67;0.67;;;;;27.98;29.63;99046.63;5045165;28;45809;-72
2023/03/09 20:28:36;;;;;;;;;2.67;1.00;;;;;27.94;30.40;99040.00;5035718;28;45513;-72